createdAt,value
2018-06-30T15:51:01.992Z,26.80
2018-06-30T15:51:37.719Z,26.79
2018-06-30T15:52:13.407Z,26.84
2018-06-30T15:52:48.714Z,26.86
2018-06-30T15:53:24.004Z,26.84
2018-06-30T15:56:39.422Z,26.98
2018-06-30T15:57:14.969Z,26.98
2018-06-30T15:57:50.376Z,26.95
2018-06-30T15:58:25.783Z,27.01
2018-06-30T15:59:00.901Z,26.92
2018-06-30T15:59:36.254Z,26.95
2018-06-30T16:00:11.443Z,26.96
2018-06-30T16:00:47.463Z,26.89
2018-06-30T16:01:22.514Z,26.91
2018-06-30T16:01:57.956Z,26.84
2018-06-30T16:02:33.614Z,26.94
2018-06-30T16:03:09.125Z,26.87
2018-06-30T16:03:45.338Z,26.84
2018-06-30T16:06:59.733Z,26.91
2018-06-30T16:07:35.182Z,26.80
2018-06-30T16:08:10.691Z,26.83
2018-06-30T16:08:46.032Z,26.76
2018-06-30T16:09:21.522Z,26.73
2018-06-30T16:09:56.926Z,26.69
2018-06-30T16:10:32.237Z,26.67
2018-06-30T16:11:07.554Z,26.79
2018-06-30T16:11:45.309Z,26.65
2018-06-30T16:12:20.615Z,26.73
2018-06-30T16:12:57.646Z,26.57
2018-06-30T16:13:32.835Z,26.54
2018-06-30T16:14:09.557Z,26.54
2018-06-30T16:14:44.867Z,26.58
2018-06-30T16:15:20.120Z,26.46
2018-06-30T16:15:55.488Z,26.46
2018-06-30T16:16:30.947Z,26.40
2018-06-30T16:17:06.292Z,26.43
2018-06-30T16:17:41.809Z,26.40
2018-06-30T16:18:17.216Z,26.46
2018-06-30T16:18:52.536Z,26.39
2018-06-30T16:19:28.142Z,26.46
2018-06-30T16:20:03.596Z,26.43
2018-06-30T16:20:39.643Z,26.46
2018-06-30T16:21:14.995Z,26.49
2018-06-30T16:23:55.858Z,26.40
2018-06-30T16:24:31.192Z,26.42
2018-06-30T16:25:06.512Z,26.47
2018-06-30T16:25:41.748Z,26.43
2018-06-30T16:26:17.592Z,26.40
2018-06-30T16:26:53.060Z,26.46
2018-06-30T16:27:28.361Z,26.42
2018-06-30T16:28:03.709Z,26.42
2018-06-30T16:28:39.216Z,26.47
2018-06-30T16:29:14.418Z,26.37
2018-06-30T16:29:50.231Z,26.44
2018-06-30T16:30:25.840Z,26.27
2018-06-30T16:31:02.645Z,26.32
2018-06-30T16:31:38.183Z,26.31
2018-06-30T16:32:15.222Z,26.37
2018-06-30T16:32:50.657Z,26.31
2018-06-30T16:33:26.071Z,26.36
2018-06-30T16:34:01.392Z,26.36
2018-06-30T16:34:36.686Z,26.39
2018-06-30T16:35:12.132Z,26.29
2018-06-30T16:35:47.312Z,26.32
2018-06-30T16:36:22.718Z,26.31
2018-06-30T16:36:59.308Z,26.36
2018-06-30T16:37:34.626Z,26.32
2018-06-30T16:38:09.839Z,26.27
2018-06-30T16:38:45.788Z,26.22
2018-06-30T16:39:21.125Z,26.21
2018-06-30T16:39:56.678Z,26.31
2018-06-30T16:40:32.099Z,26.35
2018-06-30T16:41:07.526Z,26.28
2018-06-30T16:41:43.308Z,26.29
2018-06-30T16:42:18.443Z,26.24
2018-06-30T16:42:53.898Z,26.29
2018-06-30T16:43:29.289Z,26.32
2018-06-30T16:44:04.599Z,26.18
2018-06-30T16:44:40.703Z,26.20
2018-06-30T16:45:16.261Z,26.09
2018-06-30T16:45:51.771Z,26.20
2018-06-30T16:46:27.156Z,26.08
2018-06-30T16:47:02.526Z,26.15
2018-06-30T16:47:37.829Z,25.99
2018-06-30T16:48:13.057Z,26.04
2018-06-30T16:48:49.235Z,26.02
2018-06-30T16:49:24.474Z,25.97
2018-06-30T16:50:01.514Z,26.01
2018-06-30T16:50:38.629Z,25.94
2018-06-30T16:53:15.346Z,25.94
2018-06-30T16:53:51.878Z,25.99
2018-06-30T16:54:27.087Z,25.99
2018-06-30T16:55:02.819Z,26.01
2018-06-30T16:55:39.297Z,25.94
2018-06-30T16:56:14.824Z,25.99
2018-06-30T16:56:50.546Z,26.01
2018-06-30T16:57:26.175Z,25.94
2018-06-30T16:58:01.532Z,25.99
2018-06-30T16:58:37.418Z,26.05
2018-06-30T16:59:12.651Z,25.99
2018-06-30T16:59:48.152Z,25.93
2018-06-30T17:00:23.953Z,26.01
2018-06-30T17:01:00.078Z,25.80
2018-06-30T17:01:35.656Z,25.91
2018-06-30T17:02:10.913Z,25.86
2018-06-30T17:02:46.324Z,25.94
2018-06-30T17:03:21.848Z,25.79
2018-06-30T17:03:57.420Z,25.75
2018-06-30T17:04:33.016Z,25.77
2018-06-30T17:05:08.937Z,25.79
2018-06-30T17:05:44.238Z,25.79
2018-06-30T17:06:19.733Z,25.83
2018-06-30T17:06:54.904Z,25.71
2018-06-30T17:07:30.201Z,25.79
2018-06-30T17:08:05.938Z,25.80
2018-06-30T17:08:41.517Z,25.80
2018-06-30T17:09:16.846Z,25.77
2018-06-30T17:09:52.154Z,25.68
2018-06-30T17:10:27.501Z,25.79
2018-06-30T17:11:02.936Z,25.68
2018-06-30T17:11:38.454Z,25.74
2018-06-30T17:12:13.887Z,25.68
2018-06-30T17:12:49.284Z,25.67
2018-06-30T17:13:24.914Z,25.68
2018-06-30T17:14:00.268Z,25.79
2018-06-30T17:14:35.461Z,25.68
2018-06-30T17:15:11.089Z,25.74
2018-06-30T17:15:46.598Z,25.72
2018-06-30T17:18:22.991Z,25.68
2018-06-30T17:18:58.302Z,25.71
2018-06-30T17:19:33.717Z,25.62
2018-06-30T17:20:09.357Z,25.62
2018-06-30T17:20:46.246Z,25.62
2018-06-30T17:21:21.678Z,25.62
2018-06-30T17:21:57.222Z,25.61
2018-06-30T17:22:32.800Z,25.57
2018-06-30T17:23:08.021Z,25.61
2018-06-30T17:23:43.395Z,25.57
2018-06-30T17:24:18.787Z,25.57
2018-06-30T17:24:54.251Z,25.62
2018-06-30T17:25:29.624Z,25.61
2018-06-30T17:26:05.275Z,25.59
2018-06-30T17:26:40.853Z,25.59
2018-06-30T17:27:16.208Z,25.53
2018-06-30T17:27:51.402Z,25.52
2018-06-30T17:28:26.609Z,25.50
2018-06-30T17:29:02.001Z,25.52
2018-06-30T17:29:37.224Z,25.46
2018-06-30T17:30:12.436Z,25.46
2018-06-30T17:30:49.352Z,25.47
2018-06-30T17:31:24.975Z,25.52
2018-06-30T17:32:00.478Z,25.43
2018-06-30T17:32:36.226Z,25.39
2018-06-30T17:33:11.233Z,25.42
2018-06-30T17:33:46.543Z,25.39
2018-06-30T17:34:21.886Z,25.43
2018-06-30T17:34:57.181Z,25.39
2018-06-30T17:35:32.326Z,25.44
2018-06-30T17:36:07.565Z,25.25
2018-06-30T17:36:42.866Z,25.34
2018-06-30T17:37:18.211Z,25.30
2018-06-30T17:37:53.417Z,25.35
2018-06-30T17:38:29.156Z,25.31
2018-06-30T17:39:04.664Z,25.31
2018-06-30T17:39:40.162Z,25.28
2018-06-30T17:40:15.581Z,25.31
2018-06-30T17:40:50.781Z,25.27
2018-06-30T17:41:25.980Z,25.28
2018-06-30T17:42:01.260Z,25.24
2018-06-30T17:42:36.598Z,25.28
2018-06-30T17:43:11.736Z,25.30
2018-06-30T17:43:47.233Z,25.27
2018-06-30T17:44:22.557Z,25.28
2018-06-30T17:44:58.046Z,25.20
2018-06-30T17:45:33.533Z,25.28
2018-06-30T17:46:08.602Z,25.25
2018-06-30T17:46:43.790Z,25.25
2018-06-30T17:47:18.945Z,25.20
2018-06-30T17:47:54.439Z,25.15
2018-06-30T17:48:29.559Z,25.22
2018-06-30T17:49:05.189Z,25.19
2018-06-30T17:49:40.598Z,25.13
2018-06-30T17:50:15.743Z,25.10
2018-06-30T17:50:50.957Z,25.13
2018-06-30T17:51:26.312Z,25.16
2018-06-30T17:52:01.602Z,25.15
2018-06-30T17:52:37.270Z,25.16
2018-06-30T17:53:12.466Z,25.12
2018-06-30T17:53:47.557Z,25.13
2018-06-30T17:54:22.771Z,25.20
2018-06-30T17:54:58.372Z,25.13
2018-06-30T17:55:33.838Z,25.10
2018-06-30T17:56:09.356Z,25.20
2018-06-30T17:56:44.664Z,25.09
2018-06-30T17:57:20.204Z,25.15
2018-06-30T17:57:55.533Z,25.07
2018-06-30T18:01:10.016Z,25.05
2018-06-30T18:01:46.245Z,25.05
2018-06-30T18:02:21.587Z,24.95
2018-06-30T18:02:56.919Z,25.05
2018-06-30T18:03:32.148Z,24.98
2018-06-30T18:04:07.473Z,24.98
2018-06-30T18:04:43.489Z,25.01
2018-06-30T18:05:18.842Z,25.00
2018-06-30T18:05:55.628Z,24.98
2018-06-30T18:06:30.949Z,24.95
2018-06-30T18:07:06.250Z,24.95
2018-06-30T18:07:41.470Z,24.88
2018-06-30T18:08:16.797Z,24.90
2018-06-30T18:08:52.199Z,24.87
2018-06-30T18:09:27.859Z,24.85
2018-06-30T18:10:02.995Z,24.80
2018-06-30T18:10:38.369Z,24.82
2018-06-30T18:11:13.585Z,24.80
2018-06-30T18:11:48.990Z,24.73
2018-06-30T18:12:24.327Z,24.75
2018-06-30T18:12:59.658Z,24.71
2018-06-30T18:13:34.966Z,24.76
2018-06-30T18:14:10.534Z,24.76
2018-06-30T18:14:46.502Z,24.75
2018-06-30T18:15:22.049Z,24.73
2018-06-30T18:15:57.517Z,24.63
2018-06-30T18:16:32.872Z,24.68
2018-06-30T18:17:08.327Z,24.69
2018-06-30T18:17:43.690Z,24.64
2018-06-30T18:18:19.139Z,24.57
2018-06-30T18:18:54.342Z,24.60
2018-06-30T18:19:30.060Z,24.54
2018-06-30T18:20:05.482Z,24.57
2018-06-30T18:20:41.280Z,24.61
2018-06-30T18:21:16.956Z,24.59
2018-06-30T18:21:52.164Z,24.56
2018-06-30T18:22:27.286Z,24.50
2018-06-30T18:23:02.928Z,24.56
2018-06-30T18:23:38.145Z,24.57
2018-06-30T18:24:13.402Z,24.54
2018-06-30T18:24:48.700Z,24.64
2018-06-30T18:25:23.918Z,24.59
2018-06-30T18:25:59.266Z,24.53
2018-06-30T18:26:34.797Z,24.54
2018-06-30T18:27:10.374Z,24.59
2018-06-30T18:27:46.015Z,24.52
2018-06-30T18:28:21.451Z,24.50
2018-06-30T18:28:56.877Z,24.54
2018-06-30T18:29:31.995Z,24.52
2018-06-30T18:30:07.148Z,24.53
2018-06-30T18:30:42.543Z,24.47
2018-06-30T18:31:17.965Z,24.41
2018-06-30T18:31:53.103Z,24.39
2018-06-30T18:32:28.283Z,24.44
2018-06-30T18:33:03.651Z,24.42
2018-06-30T18:33:38.867Z,24.44
2018-06-30T18:34:14.282Z,24.38
2018-06-30T18:34:49.675Z,24.44
2018-06-30T18:35:25.102Z,24.39
2018-06-30T18:36:00.523Z,24.38
2018-06-30T18:36:35.653Z,24.37
2018-06-30T18:37:10.894Z,24.39
2018-06-30T18:37:46.220Z,24.35
2018-06-30T18:38:21.932Z,24.32
2018-06-30T18:38:57.433Z,24.31
2018-06-30T18:39:32.966Z,24.31
2018-06-30T18:40:08.505Z,24.35
2018-06-30T18:40:44.183Z,24.35
2018-06-30T18:41:19.565Z,24.29
2018-06-30T18:41:54.773Z,24.27
2018-06-30T18:42:30.309Z,24.32
2018-06-30T18:43:05.766Z,24.29
2018-06-30T18:43:41.375Z,24.32
2018-06-30T18:44:16.824Z,24.29
2018-06-30T18:44:52.206Z,24.20
2018-06-30T18:45:27.327Z,24.23
2018-06-30T18:46:02.883Z,24.34
2018-06-30T18:46:38.106Z,24.16
2018-06-30T18:47:13.490Z,24.17
2018-06-30T18:47:48.621Z,24.14
2018-06-30T18:48:23.883Z,24.14
2018-06-30T18:48:59.095Z,24.19
2018-06-30T18:49:34.446Z,24.19
2018-06-30T18:50:10.202Z,24.20
2018-06-30T18:50:45.402Z,24.16
2018-06-30T18:51:20.843Z,24.12
2018-06-30T18:51:56.358Z,24.12
2018-06-30T18:52:32.190Z,24.05
2018-06-30T18:53:07.512Z,24.13
2018-06-30T18:53:42.911Z,24.08
2018-06-30T18:54:18.255Z,24.04
2018-06-30T18:54:53.483Z,24.02
2018-06-30T18:55:29.094Z,24.00
2018-06-30T18:56:04.412Z,23.98
2018-06-30T18:56:39.517Z,24.01
2018-06-30T18:57:14.954Z,23.98
2018-06-30T18:57:50.056Z,24.00
2018-06-30T18:58:25.436Z,23.94
2018-06-30T18:59:01.274Z,23.95
2018-06-30T18:59:36.375Z,23.95
2018-06-30T19:00:11.723Z,23.92
2018-06-30T19:03:27.501Z,23.86
2018-06-30T19:04:03.768Z,23.82
2018-06-30T19:04:39.227Z,23.83
2018-06-30T19:05:14.739Z,23.83
2018-06-30T19:05:49.943Z,23.76
2018-06-30T19:06:25.348Z,23.83
2018-06-30T19:07:00.540Z,23.72
2018-06-30T19:07:35.936Z,23.75
2018-06-30T19:08:11.142Z,23.71
2018-06-30T19:08:46.456Z,23.75
2018-06-30T19:09:22.183Z,23.72
2018-06-30T19:09:57.328Z,23.77
2018-06-30T19:10:33.004Z,23.76
2018-06-30T19:11:08.322Z,23.67
2018-06-30T19:11:43.508Z,23.70
2018-06-30T19:12:18.677Z,23.68
2018-06-30T19:12:53.988Z,23.68
2018-06-30T19:13:29.226Z,23.68
2018-06-30T19:14:04.553Z,23.67
2018-06-30T19:14:40.078Z,23.71
2018-06-30T19:15:15.402Z,23.65
2018-06-30T19:15:50.937Z,23.68
2018-06-30T19:16:26.311Z,23.67
2018-06-30T19:17:05.498Z,23.72
2018-06-30T19:17:40.927Z,23.72
2018-06-30T19:18:16.374Z,23.62
2018-06-30T19:18:52.002Z,23.67
2018-06-30T19:19:27.424Z,23.61
2018-06-30T19:20:02.932Z,23.67
2018-06-30T19:20:38.356Z,23.61
2018-06-30T19:21:13.880Z,23.64
2018-06-30T19:21:49.472Z,23.60
2018-06-30T19:22:24.799Z,23.57
2018-06-30T19:23:00.181Z,23.52
2018-06-30T19:23:35.445Z,23.43
2018-06-30T19:24:11.078Z,23.55
2018-06-30T19:24:46.249Z,23.49
2018-06-30T19:25:21.814Z,23.45
2018-06-30T19:25:57.405Z,23.46
2018-06-30T19:26:32.743Z,23.46
2018-06-30T19:27:08.364Z,23.42
2018-06-30T19:27:44.311Z,23.32
2018-06-30T19:28:19.758Z,23.35
2018-06-30T19:28:55.268Z,23.43
2018-06-30T19:29:30.702Z,23.34
2018-06-30T19:30:06.003Z,23.35
2018-06-30T19:30:44.206Z,23.34
2018-06-30T19:31:19.256Z,23.26
2018-06-30T19:31:54.375Z,23.19
2018-06-30T19:32:29.703Z,23.22
2018-06-30T19:33:04.936Z,23.19
2018-06-30T19:33:40.425Z,23.12
2018-06-30T19:34:16.769Z,23.14
2018-06-30T19:37:32.152Z,23.02
2018-06-30T19:38:08.268Z,23.01
2018-06-30T19:38:43.410Z,23.05
2018-06-30T19:39:18.739Z,23.02
2018-06-30T19:39:53.934Z,23.01
2018-06-30T19:40:29.586Z,22.92
2018-06-30T19:41:04.772Z,22.97
2018-06-30T19:41:39.811Z,22.92
2018-06-30T19:42:15.148Z,22.99
2018-06-30T19:42:50.533Z,22.90
2018-06-30T19:43:25.835Z,22.86
2018-06-30T19:44:01.067Z,22.82
2018-06-30T19:44:36.859Z,22.83
2018-06-30T19:45:12.165Z,22.87
2018-06-30T19:45:47.266Z,22.82
2018-06-30T19:46:22.492Z,22.78
2018-06-30T19:46:57.685Z,22.75
2018-06-30T19:47:33.315Z,22.74
2018-06-30T19:48:08.654Z,22.75
2018-06-30T19:48:45.171Z,22.68
2018-06-30T19:49:20.404Z,22.75
2018-06-30T19:49:55.705Z,22.64
2018-06-30T19:50:31.410Z,22.68
2018-06-30T19:51:09.998Z,22.68
2018-06-30T19:51:45.505Z,22.65
2018-06-30T19:52:21.028Z,22.60
2018-06-30T19:52:56.490Z,22.57
2018-06-30T19:53:31.701Z,22.64
2018-06-30T19:56:08.164Z,22.53
2018-06-30T19:56:43.301Z,22.47
2018-06-30T19:57:18.594Z,22.50
2018-06-30T19:57:54.031Z,22.52
2018-06-30T19:58:29.737Z,22.53
2018-06-30T19:59:05.226Z,22.52
2018-06-30T19:59:40.602Z,22.50
2018-06-30T20:00:15.517Z,22.41
2018-06-30T20:00:50.816Z,22.43
2018-06-30T20:01:26.206Z,22.38
2018-06-30T20:02:01.699Z,22.43
2018-06-30T20:02:37.528Z,22.43
2018-06-30T20:03:12.606Z,22.43
2018-06-30T20:03:47.711Z,22.37
2018-06-30T20:04:23.126Z,22.44
2018-06-30T20:05:01.844Z,22.41
2018-06-30T20:05:38.028Z,22.29
2018-06-30T20:06:13.150Z,22.29
2018-06-30T20:06:48.578Z,22.29
2018-06-30T20:07:23.699Z,22.27
2018-06-30T20:07:59.385Z,22.27
2018-06-30T20:08:34.697Z,22.29
2018-06-30T20:09:10.059Z,22.20
2018-06-30T20:12:24.529Z,22.14
2018-06-30T20:12:59.856Z,22.14
2018-06-30T20:13:36.251Z,22.12
2018-06-30T20:14:11.568Z,22.12
2018-06-30T20:14:47.074Z,22.17
2018-06-30T20:15:22.410Z,22.13
2018-06-30T20:15:57.901Z,22.01
2018-06-30T20:16:33.411Z,21.99
2018-06-30T20:17:08.701Z,21.98
2018-06-30T20:17:44.017Z,21.92
2018-06-30T20:18:19.321Z,21.97
2018-06-30T20:18:54.704Z,21.92
2018-06-30T20:19:30.130Z,22.01
2018-06-30T20:20:05.232Z,21.91
2018-06-30T20:20:40.582Z,21.94
2018-06-30T20:21:16.091Z,21.97
2018-06-30T20:21:51.665Z,21.97
2018-06-30T20:22:26.790Z,21.95
2018-06-30T20:23:02.216Z,21.92
2018-06-30T20:23:37.542Z,21.94
2018-06-30T20:24:12.930Z,21.82
2018-06-30T20:24:51.676Z,21.79
2018-06-30T20:25:26.906Z,21.90
2018-06-30T20:26:02.357Z,21.79
2018-06-30T20:26:37.859Z,21.78
2018-06-30T20:27:13.455Z,21.83
2018-06-30T20:27:48.573Z,21.78
2018-06-30T20:28:24.097Z,21.71
2018-06-30T20:28:59.687Z,21.71
2018-06-30T20:29:34.671Z,21.81
2018-06-30T20:30:10.686Z,21.75
2018-06-30T20:30:48.492Z,21.66
2018-06-30T20:31:23.636Z,21.66
2018-06-30T20:31:59.155Z,21.64
2018-06-30T20:32:34.507Z,21.63
2018-06-30T20:33:10.000Z,21.64
2018-06-30T20:33:46.427Z,21.61
2018-06-30T20:34:21.762Z,21.53
2018-06-30T20:34:57.039Z,21.50
2018-06-30T20:35:32.251Z,21.54
2018-06-30T20:36:07.627Z,21.54
2018-06-30T20:36:42.902Z,21.51
2018-06-30T20:37:18.033Z,21.50
2018-06-30T20:37:53.237Z,21.44
2018-06-30T20:38:28.690Z,21.51
2018-06-30T20:39:04.173Z,21.45
2018-06-30T20:39:39.656Z,21.48
2018-06-30T20:40:14.933Z,21.38
2018-06-30T20:40:51.633Z,21.38
2018-06-30T20:41:26.957Z,21.38
2018-06-30T20:42:02.489Z,21.35
2018-06-30T20:42:37.718Z,21.32
2018-06-30T20:43:13.018Z,21.24
2018-06-30T20:43:48.334Z,21.35
2018-06-30T20:44:23.805Z,21.20
2018-06-30T20:44:59.021Z,21.23
2018-06-30T20:45:34.572Z,21.27
2018-06-30T20:46:10.059Z,21.27
2018-06-30T20:46:45.586Z,21.20
2018-06-30T20:47:21.205Z,21.23
2018-06-30T20:47:56.941Z,21.23
2018-06-30T20:48:32.347Z,21.20
2018-06-30T20:49:07.657Z,21.20
2018-06-30T20:49:42.769Z,21.11
2018-06-30T20:50:18.624Z,21.13
2018-06-30T20:50:55.359Z,21.13
2018-06-30T20:51:30.585Z,21.14
2018-06-30T20:52:06.206Z,21.13
2018-06-30T20:52:41.944Z,21.04
2018-06-30T20:53:17.056Z,21.16
2018-06-30T20:53:52.095Z,21.14
2018-06-30T20:54:27.456Z,21.05
2018-06-30T20:55:02.975Z,21.14
2018-06-30T20:55:38.603Z,21.13
2018-06-30T20:56:14.019Z,21.05
2018-06-30T20:56:49.045Z,20.96
2018-06-30T20:57:24.490Z,21.04
2018-06-30T20:57:59.746Z,21.02
2018-06-30T20:58:35.193Z,20.96
2018-06-30T20:59:10.397Z,20.98
2018-06-30T20:59:45.727Z,20.93
2018-06-30T21:00:21.156Z,20.93
2018-06-30T21:00:56.397Z,21.04
2018-06-30T21:01:31.913Z,20.99
2018-06-30T21:02:07.295Z,20.99
2018-06-30T21:02:42.935Z,20.99
2018-06-30T21:03:18.247Z,20.90
2018-06-30T21:03:53.470Z,20.91
2018-06-30T21:04:28.887Z,20.86
2018-06-30T21:05:04.061Z,20.87
2018-06-30T21:05:39.121Z,20.84
2018-06-30T21:06:14.310Z,20.84
2018-06-30T21:06:49.750Z,20.80
2018-06-30T21:07:24.978Z,20.80
2018-06-30T21:08:00.317Z,20.86
2018-06-30T21:08:35.460Z,20.80
2018-06-30T21:09:10.568Z,20.76
2018-06-30T21:09:45.858Z,20.79
2018-06-30T21:10:21.345Z,20.76
2018-06-30T21:10:56.769Z,20.72
2018-06-30T21:11:31.999Z,20.64
2018-06-30T21:12:07.427Z,20.76
2018-06-30T21:12:42.677Z,20.77
2018-06-30T21:13:18.366Z,20.68
2018-06-30T21:13:54.202Z,20.62
2018-06-30T21:14:29.823Z,20.74
2018-06-30T21:15:04.813Z,20.65
2018-06-30T21:15:40.965Z,20.56
2018-06-30T21:16:16.365Z,20.61
2018-06-30T21:16:51.558Z,20.49
2018-06-30T21:17:27.342Z,20.64
2018-06-30T21:18:02.785Z,20.61
2018-06-30T21:18:38.159Z,20.46
2018-06-30T21:19:13.251Z,20.53
2018-06-30T21:19:48.796Z,20.62
2018-06-30T21:20:23.952Z,20.46
2018-06-30T21:21:00.963Z,20.58
2018-06-30T21:21:36.588Z,20.41
2018-06-30T21:22:12.091Z,20.50
2018-06-30T21:22:47.512Z,20.42
2018-06-30T21:23:22.641Z,20.33
2018-06-30T21:23:58.066Z,20.31
2018-06-30T21:24:33.391Z,20.27
2018-06-30T21:25:08.776Z,20.23
2018-06-30T21:25:44.182Z,20.25
2018-06-30T21:26:19.458Z,20.21
2018-06-30T21:26:54.707Z,20.15
2018-06-30T21:27:29.839Z,20.13
2018-06-30T21:28:05.386Z,20.09
2018-06-30T21:28:40.911Z,20.05
2018-06-30T21:29:16.197Z,20.06
2018-06-30T21:29:51.955Z,20.09
2018-06-30T21:30:27.310Z,20.09
2018-06-30T21:31:03.509Z,20.05
2018-06-30T21:31:39.145Z,20.06
2018-06-30T21:32:14.537Z,20.06
2018-06-30T21:32:49.905Z,20.08
2018-06-30T21:33:25.444Z,20.08
2018-06-30T21:34:00.871Z,19.93
2018-06-30T21:34:36.114Z,20.12
2018-06-30T21:35:11.291Z,19.94
2018-06-30T21:35:47.715Z,20.00
2018-06-30T21:36:23.337Z,19.88
2018-06-30T21:36:59.832Z,19.97
2018-06-30T21:37:35.842Z,19.87
2018-06-30T21:38:10.898Z,19.88
2018-06-30T21:38:46.285Z,19.95
2018-06-30T21:39:21.423Z,19.79
2018-06-30T21:39:56.459Z,19.88
2018-06-30T21:40:31.757Z,19.88
2018-06-30T21:41:07.074Z,19.83
2018-06-30T21:41:42.171Z,19.84
2018-06-30T21:42:17.791Z,19.78
2018-06-30T21:42:53.322Z,19.78
2018-06-30T21:43:28.539Z,19.91
2018-06-30T21:44:05.049Z,19.90
2018-06-30T21:44:40.367Z,19.83
2018-06-30T21:45:15.782Z,19.86
2018-06-30T21:45:51.195Z,19.86
2018-06-30T21:46:26.889Z,19.84
2018-06-30T21:47:02.411Z,19.73
2018-06-30T21:47:37.997Z,19.79
2018-06-30T21:48:13.357Z,19.79
2018-06-30T21:48:48.789Z,19.72
2018-06-30T21:49:24.022Z,19.76
2018-06-30T21:49:59.793Z,19.73
2018-06-30T21:50:35.584Z,19.78
2018-06-30T21:51:10.793Z,19.73
2018-06-30T21:51:46.182Z,19.68
2018-06-30T21:52:21.509Z,19.72
2018-06-30T21:52:57.023Z,19.68
2018-06-30T21:53:32.157Z,19.73
2018-06-30T21:54:07.365Z,19.70
2018-06-30T21:54:42.568Z,19.68
2018-06-30T21:55:18.083Z,19.54
2018-06-30T21:55:53.392Z,19.65
2018-06-30T21:56:28.411Z,19.65
2018-06-30T21:57:03.754Z,19.63
2018-06-30T21:57:39.228Z,19.54
2018-06-30T21:58:14.468Z,19.57
2018-06-30T21:58:49.762Z,19.55
2018-06-30T21:59:24.802Z,19.58
2018-06-30T21:59:59.923Z,19.51
2018-06-30T22:00:35.143Z,19.54
2018-06-30T22:01:10.462Z,19.57
2018-06-30T22:01:45.677Z,19.51
2018-06-30T22:02:21.120Z,19.53
2018-06-30T22:02:56.320Z,19.53
2018-06-30T22:03:31.454Z,19.55
2018-06-30T22:04:06.750Z,19.39
2018-06-30T22:04:45.358Z,19.47
2018-06-30T22:05:20.493Z,19.54
2018-06-30T22:05:55.920Z,19.39
2018-06-30T22:06:31.135Z,19.46
2018-06-30T22:07:06.672Z,19.43
2018-06-30T22:07:42.381Z,19.32
2018-06-30T22:08:17.590Z,19.43
2018-06-30T22:08:53.242Z,19.35
2018-06-30T22:09:28.383Z,19.43
2018-06-30T22:10:03.713Z,19.47
2018-06-30T22:10:38.833Z,19.36
2018-06-30T22:11:14.197Z,19.40
2018-06-30T22:13:50.679Z,19.31
2018-06-30T22:14:26.992Z,19.33
2018-06-30T22:15:02.080Z,19.36
2018-06-30T22:18:19.560Z,19.24
2018-06-30T22:18:54.965Z,19.18
2018-06-30T22:19:30.344Z,19.31
2018-06-30T22:20:05.573Z,19.29
2018-06-30T22:20:40.653Z,19.18
2018-06-30T22:21:16.087Z,19.17
2018-06-30T22:21:51.459Z,19.25
2018-06-30T22:22:26.567Z,19.25
2018-06-30T22:23:01.859Z,19.20
2018-06-30T22:23:37.201Z,19.20
2018-06-30T22:24:12.508Z,19.23
2018-06-30T22:24:47.897Z,19.21
2018-06-30T22:25:22.994Z,19.18
2018-06-30T22:25:58.287Z,19.18
2018-06-30T22:26:33.617Z,19.18
2018-06-30T22:27:08.873Z,19.11
2018-06-30T22:27:44.280Z,19.15
2018-06-30T22:28:19.400Z,19.20
2018-06-30T22:28:55.441Z,19.17
2018-06-30T22:29:30.857Z,19.13
2018-06-30T22:30:06.278Z,19.11
2018-06-30T22:30:46.641Z,19.14
2018-06-30T22:31:22.155Z,19.01
2018-06-30T22:31:58.329Z,19.06
2018-06-30T22:32:33.718Z,19.05
2018-06-30T22:33:09.636Z,18.99
2018-06-30T22:33:44.921Z,18.99
2018-06-30T22:34:19.963Z,19.02
2018-06-30T22:34:55.169Z,18.99
2018-06-30T22:35:30.475Z,19.01
2018-06-30T22:36:05.780Z,18.99
2018-06-30T22:36:41.806Z,18.98
2018-06-30T22:37:16.930Z,18.98
2018-06-30T22:37:52.230Z,18.98
2018-06-30T22:38:27.459Z,18.92
2018-06-30T22:39:02.974Z,19.02
2018-06-30T22:39:38.480Z,19.02
2018-06-30T22:40:13.797Z,18.94
2018-06-30T22:40:49.178Z,18.90
2018-06-30T22:41:24.802Z,18.91
2018-06-30T22:42:00.093Z,18.91
2018-06-30T22:42:35.536Z,18.86
2018-06-30T22:43:11.238Z,18.90
2018-06-30T22:43:46.485Z,18.91
2018-06-30T22:44:21.521Z,18.87
2018-06-30T22:44:57.026Z,18.84
2018-06-30T22:45:32.395Z,18.91
2018-06-30T22:46:07.693Z,18.83
2018-06-30T22:46:44.811Z,18.83
2018-06-30T22:47:20.271Z,18.82
2018-06-30T22:47:55.659Z,18.90
2018-06-30T22:48:31.065Z,18.86
2018-06-30T22:49:06.278Z,18.86
2018-06-30T22:49:41.521Z,18.82
2018-06-30T22:50:16.740Z,18.82
2018-06-30T22:50:53.229Z,18.82
2018-06-30T22:51:28.638Z,18.80
2018-06-30T22:52:03.915Z,18.83
2018-06-30T22:52:39.159Z,18.82
2018-06-30T22:53:14.386Z,18.68
2018-06-30T22:53:49.779Z,18.79
2018-06-30T22:54:25.093Z,18.68
2018-06-30T22:55:00.323Z,18.76
2018-06-30T22:55:35.943Z,18.74
2018-06-30T22:56:10.944Z,18.74
2018-06-30T22:56:46.395Z,18.68
2018-06-30T22:57:22.107Z,18.72
2018-06-30T22:57:57.627Z,18.73
2018-06-30T22:58:33.070Z,18.74
2018-06-30T22:59:08.482Z,18.65
2018-06-30T22:59:47.203Z,18.72
2018-06-30T23:00:22.455Z,18.61
2018-06-30T23:00:57.908Z,18.59
2018-06-30T23:01:33.225Z,18.55
2018-06-30T23:02:08.765Z,18.47
2018-06-30T23:02:44.490Z,18.57
2018-06-30T23:03:19.817Z,18.58
2018-06-30T23:03:55.123Z,18.54
2018-06-30T23:04:30.357Z,18.57
2018-06-30T23:05:06.144Z,18.54
2018-06-30T23:07:42.698Z,18.47
2018-06-30T23:08:17.902Z,18.55
2018-06-30T23:08:53.513Z,18.47
2018-06-30T23:09:29.046Z,18.52
2018-06-30T23:10:04.309Z,18.50
2018-06-30T23:10:40.929Z,18.49
2018-06-30T23:11:16.053Z,18.50
2018-06-30T23:11:51.224Z,18.44
2018-06-30T23:12:26.546Z,18.44
2018-06-30T23:13:01.744Z,18.44
2018-06-30T23:13:36.827Z,18.40
2018-06-30T23:14:13.550Z,18.42
2018-06-30T23:14:48.760Z,18.47
2018-06-30T23:15:24.376Z,18.46
2018-06-30T23:15:59.540Z,18.39
2018-06-30T23:16:35.055Z,18.44
2018-06-30T23:17:10.254Z,18.46
2018-06-30T23:17:45.575Z,18.44
2018-06-30T23:18:20.859Z,18.44
2018-06-30T23:18:56.270Z,18.34
2018-06-30T23:19:31.492Z,18.34
2018-06-30T23:20:06.884Z,18.39
2018-06-30T23:20:42.226Z,18.34
2018-06-30T23:21:17.524Z,18.42
2018-06-30T23:21:52.729Z,18.36
2018-06-30T23:22:28.134Z,18.34
2018-06-30T23:23:03.306Z,18.36
2018-06-30T23:23:38.895Z,18.29
2018-06-30T23:24:14.136Z,18.33
2018-06-30T23:24:49.403Z,18.36
2018-06-30T23:25:24.608Z,18.36
2018-06-30T23:25:59.897Z,18.31
2018-06-30T23:26:35.631Z,18.29
2018-06-30T23:27:11.333Z,18.34
2018-06-30T23:27:46.846Z,18.31
2018-06-30T23:28:22.254Z,18.18
2018-06-30T23:28:57.357Z,18.25
2018-06-30T23:29:32.719Z,18.27
2018-06-30T23:30:07.999Z,18.24
2018-06-30T23:30:44.295Z,18.22
2018-06-30T23:31:19.587Z,18.27
2018-06-30T23:31:54.924Z,18.18
2018-06-30T23:32:30.335Z,18.29
2018-06-30T23:33:05.560Z,18.18
2018-06-30T23:33:41.022Z,18.24
2018-06-30T23:34:16.432Z,18.18
2018-06-30T23:34:51.695Z,18.25
2018-06-30T23:35:27.411Z,18.17
2018-06-30T23:36:02.692Z,18.12
2018-06-30T23:36:38.100Z,18.18
2018-06-30T23:37:13.496Z,18.13
2018-06-30T23:37:48.617Z,18.19
2018-06-30T23:38:24.040Z,18.10
2018-06-30T23:38:59.225Z,18.09
2018-06-30T23:39:34.996Z,18.07
2018-06-30T23:40:10.388Z,18.19
2018-06-30T23:40:45.824Z,18.03
2018-06-30T23:41:21.328Z,18.02
2018-06-30T23:41:56.454Z,18.13
2018-06-30T23:42:31.677Z,18.12
2018-06-30T23:43:06.799Z,18.03
2018-06-30T23:43:42.223Z,18.12
2018-06-30T23:44:17.427Z,18.10
2018-06-30T23:44:52.696Z,18.09
2018-06-30T23:45:28.219Z,18.03
2018-06-30T23:46:03.213Z,18.06
2018-06-30T23:46:38.623Z,17.99
2018-06-30T23:47:14.014Z,18.07
2018-06-30T23:47:49.332Z,17.94
2018-06-30T23:48:24.665Z,17.97
2018-06-30T23:49:00.055Z,18.06
2018-06-30T23:49:35.306Z,17.99
2018-06-30T23:50:11.101Z,18.03
2018-06-30T23:50:46.240Z,18.06
2018-06-30T23:51:21.632Z,17.91
2018-06-30T23:51:56.962Z,17.85
2018-06-30T23:52:32.093Z,17.91
2018-06-30T23:53:07.508Z,17.88
2018-06-30T23:53:42.925Z,17.94
2018-06-30T23:54:18.231Z,17.88
2018-06-30T23:54:53.493Z,17.91
2018-06-30T23:55:28.713Z,18.00
2018-06-30T23:56:05.745Z,17.99
2018-06-30T23:56:42.468Z,17.91
2018-06-30T23:57:17.762Z,17.95
2018-06-30T23:57:53.110Z,17.92
2018-06-30T23:58:28.647Z,17.91